Bruno, Nebraska
Current Conditions -  °F | °C
As of 4:15 PM on Sunday 25 Jan 2015 (Local Time) from KAHQ Reporting Station
Overcast Overcast  
Wind Chill: 32°   Ceiling: 2300
Heat Index: 39°   Visibility: 10mi
Dew Point: 31°   Wind: 12mph
Humidity: 74%   Direction: 330°NNW
Pressure: 30.07"   Gusts: NA
Location:  41.28°N, 96.96°W
Report Text: KAHQ 252215Z AUTO 33010KT 10SM BKN023 OVC039 04/00 A3007 RMK AO2 T00381005
Loading
Personal Weather Stations






























Interactive Weather Map New forecast layout! Learn more

10-Day Weather Forecast

Advertisements
Track Severe Weather on mobile